Time;durP1;ratioP1;P1;durP2;ratioP2;P2;SDS_P1;SDS_P2;PMS_P1;PMS_P2;Temp;Humidity;BMP_temperature;BMP_pressure;BME280_temperature;BME280_humidity;BME280_pressure;Samples;Min_cycle;Max_cycle;Signal;HPM_P1;HPM_P2
2021/10/30 00:02:24;;;;;;;27.95;16.60;;;;;;;-139.48;100.00;61774.03;4999097;28;20052;-72
2021/10/30 00:05:10;;;;;;;29.38;16.88;;;;;;;-139.48;100.00;61774.03;4999047;28;20056;-71
2021/10/30 00:07:54;;;;;;;28.15;14.95;;;;;;;-139.48;100.00;61774.03;5013822;28;20471;-72
2021/10/30 00:10:39;;;;;;;28.13;15.68;;;;;;;-139.48;100.00;61774.03;4985498;28;20462;-72
2021/10/30 00:13:23;;;;;;;23.33;14.52;;;;;;;-139.48;100.00;61774.03;4999144;28;20052;-72
2021/10/30 00:16:06;;;;;;;29.23;15.23;;;;;;;-139.48;100.00;61774.03;4998815;28;20131;-72
2021/10/30 00:18:50;;;;;;;29.67;16.45;;;;;;;-139.48;100.00;61774.03;4985374;28;20509;-72
2021/10/30 00:21:34;;;;;;;29.00;15.30;;;;;;;-139.48;100.00;61774.03;4998688;28;20088;-72
2021/10/30 00:24:19;;;;;;;28.52;16.10;;;;;;;-139.48;100.00;61774.03;4984850;28;20536;-71
2021/10/30 00:27:04;;;;;;;25.60;15.98;;;;;;;-139.48;100.00;61774.03;4985247;28;20108;-72
2021/10/30 00:29:48;;;;;;;29.00;17.65;;;;;;;-139.48;100.00;61774.03;4998784;28;20045;-72
2021/10/30 00:32:32;;;;;;;29.75;15.75;;;;;;;-139.48;100.00;61774.03;4999123;28;20125;-70
2021/10/30 00:35:16;;;;;;;27.83;17.27;;;;;;;-139.48;100.00;61774.03;4998557;28;20084;-72
2021/10/30 00:38:00;;;;;;;;;;;;;;;-139.48;100.00;61774.03;4985606;28;20423;-72
2021/10/30 00:40:44;;;;;;;32.67;19.10;;;;;;;-139.48;100.00;61774.03;4998820;28;20337;-72
2021/10/30 00:43:28;;;;;;;33.60;18.80;;;;;;;-139.48;100.00;61774.03;4998752;28;20390;-72
2021/10/30 00:46:12;;;;;;;33.08;17.92;;;;;;;-139.48;100.00;61774.03;4998779;28;20049;-72
2021/10/30 00:48:55;;;;;;;29.00;16.67;;;;;;;-139.48;100.00;61774.03;4999047;28;20048;-72
2021/10/30 00:51:42;;;;;;;35.03;17.33;;;;;;;-139.48;100.00;61774.03;5013379;28;20049;-72
2021/10/30 00:54:26;;;;;;;26.50;15.13;;;;;;;-139.48;100.00;61774.03;4998752;28;20416;-72
2021/10/30 00:57:11;;;;;;;25.75;14.63;;;;;;;-139.48;100.00;61774.03;4986345;28;20053;-72
2021/10/30 00:59:56;;;;;;;30.67;15.70;;;;;;;-139.48;100.00;61774.03;5002418;28;20049;-72
2021/10/30 01:02:40;;;;;;;27.48;15.25;;;;;;;-139.48;100.00;61774.03;5017334;28;20053;-72
2021/10/30 01:05:24;;;;;;;24.77;14.43;;;;;;;-139.48;100.00;61774.03;5002749;28;20125;-72
2021/10/30 01:08:12;;;;;;;22.67;13.77;;;;;;;-139.48;100.00;61774.03;5002475;28;20053;-72
2021/10/30 01:10:56;;;;;;;29.95;14.80;;;;;;;-139.48;100.00;61774.03;5002910;28;20096;-71
2021/10/30 01:13:40;;;;;;;25.65;16.02;;;;;;;-139.48;100.00;61774.03;5002664;28;20553;-72
2021/10/30 01:16:24;;;;;;;27.92;16.17;;;;;;;-139.48;100.00;61774.03;4988610;28;20052;-72
2021/10/30 01:19:08;;;;;;;27.30;16.52;;;;;;;-139.48;100.00;61774.03;5016963;28;20470;-71
2021/10/30 01:21:53;;;;;;;29.88;16.63;;;;;;;-139.48;100.00;61774.03;5002224;28;20040;-72
2021/10/30 01:24:37;;;;;;;30.20;16.45;;;;;;;-139.48;100.00;61774.03;4988719;28;20045;-71
2021/10/30 01:27:21;;;;;;;30.60;17.15;;;;;;;-139.48;100.00;61774.03;4988126;28;20065;-72
2021/10/30 01:30:05;;;;;;;27.80;16.63;;;;;;;-139.48;100.00;61774.03;5002108;28;20125;-71
2021/10/30 01:33:01;;;;;;;30.73;16.48;;;;;;;-139.48;100.00;61774.03;4988331;28;20514;-71
2021/10/30 01:35:45;;;;;;;28.67;16.35;;;;;;;-139.48;100.00;61774.03;4988031;28;20064;-71
2021/10/30 01:38:29;;;;;;;28.42;15.52;;;;;;;-139.48;100.00;61774.03;5016813;28;20117;-72
2021/10/30 01:41:13;;;;;;;25.27;14.40;;;;;;;-139.48;100.00;61774.03;4987868;28;20423;-71
2021/10/30 01:43:57;;;;;;;27.67;14.77;;;;;;;-139.48;100.00;61774.03;5001507;28;20048;-71
2021/10/30 01:46:41;;;;;;;;;;;;;;;-139.48;100.00;61774.03;5002231;28;20505;-72
2021/10/30 01:49:25;;;;;;;28.03;15.27;;;;;;;-139.48;100.00;61774.03;4988068;28;19920;-72
2021/10/30 01:52:09;;;;;;;25.33;15.45;;;;;;;-139.48;100.00;61774.03;5001636;28;20092;-72
2021/10/30 01:54:53;;;;;;;25.10;15.50;;;;;;;-139.48;100.00;61774.03;4987734;28;20059;-72
2021/10/30 01:57:37;;;;;;;21.92;13.95;;;;;;;-139.48;100.00;61774.03;5016467;28;20149;-72
2021/10/30 02:00:21;;;;;;;28.73;15.40;;;;;;;-139.48;100.00;61774.03;5001346;28;20053;-72
2021/10/30 02:03:04;;;;;;;25.63;14.95;;;;;;;-139.48;100.00;61774.03;5001438;28;20053;-71
2021/10/30 02:05:50;;;;;;;25.23;15.35;;;;;;;-139.48;100.00;61774.03;5001164;28;20103;-71
2021/10/30 02:08:35;;;;;;;24.52;15.10;;;;;;;-139.48;100.00;61774.03;4987357;28;20049;-72
2021/10/30 02:11:19;;;;;;;26.75;15.27;;;;;;;-139.48;100.00;61774.03;4987676;28;20048;-72
2021/10/30 02:14:04;;;;;;;27.33;14.20;;;;;;;-139.48;100.00;61774.03;5001254;28;20055;-71
2021/10/30 02:16:47;;;;;;;23.67;14.30;;;;;;;-139.48;100.00;61774.03;5001130;28;20049;-72
2021/10/30 02:19:31;;;;;;;28.30;15.95;;;;;;;-139.48;100.00;61774.03;5015697;28;20053;-72
2021/10/30 02:22:15;;;;;;;30.77;15.32;;;;;;;-139.48;100.00;61774.03;4987636;28;20398;-72
2021/10/30 02:24:59;;;;;;;24.38;14.75;;;;;;;-139.48;100.00;61774.03;5000937;28;20049;-72
2021/10/30 02:27:43;;;;;;;26.02;15.30;;;;;;;-139.48;100.00;61774.03;5000789;28;20056;-71
2021/10/30 02:30:27;;;;;;;28.30;16.25;;;;;;;-139.48;100.00;61774.03;4986920;28;20092;-71
2021/10/30 02:33:11;;;;;;;27.63;15.73;;;;;;;-139.48;100.00;61774.03;5000972;28;20553;-72
2021/10/30 02:35:54;;;;;;;;;;;;;;;-139.48;100.00;61774.03;5038387;22;20088;-68
2021/10/30 02:38:38;;;;;;;25.70;14.53;;;;;;;-139.48;100.00;61774.03;5034554;28;19978;-69
2021/10/30 02:41:22;;;;;;;;;;;;;;;-139.48;100.00;61774.03;5035797;28;20047;-68
2021/10/30 02:44:06;;;;;;;25.23;14.50;;;;;;;-139.48;100.00;61774.03;5035144;28;19963;-68
2021/10/30 02:46:50;;;;;;;25.10;14.75;;;;;;;-139.48;100.00;61774.03;5020058;28;20052;-68
2021/10/30 02:49:34;;;;;;;24.90;15.35;;;;;;;-139.48;100.00;61774.03;5035353;28;20107;-68
2021/10/30 02:52:19;;;;;;;25.95;15.02;;;;;;;-139.48;100.00;61774.03;5035166;28;20051;-67
2021/10/30 02:55:03;;;;;;;24.90;14.85;;;;;;;-139.48;100.00;61774.03;5035345;28;20052;-68
2021/10/30 02:57:51;;;;;;;22.95;15.02;;;;;;;-139.48;100.00;61774.03;5019846;28;20048;-68
2021/10/30 03:00:35;;;;;;;24.95;15.30;;;;;;;-139.48;100.00;61774.03;5034742;28;20096;-68
2021/10/30 03:03:19;;;;;;;25.30;15.00;;;;;;;-139.48;100.00;61774.03;5019732;28;20051;-68
2021/10/30 03:06:02;;;;;;;24.23;15.43;;;;;;;-139.48;100.00;61774.03;5006199;28;20096;-68
2021/10/30 03:08:47;;;;;;;30.80;17.35;;;;;;;-139.48;100.00;61774.03;5019898;28;20053;-68
2021/10/30 03:11:31;;;;;;;28.60;16.85;;;;;;;-139.48;100.00;61774.03;5005907;28;20047;-68
2021/10/30 03:14:16;;;;;;;28.73;17.13;;;;;;;-139.48;100.00;61774.03;5005983;28;20102;-68
2021/10/30 03:17:00;;;;;;;27.75;17.55;;;;;;;-139.48;100.00;61774.03;5019680;28;20099;-68
2021/10/30 03:19:44;;;;;;;25.00;15.63;;;;;;;-139.48;100.00;61774.03;5004718;28;20414;-68
2021/10/30 03:22:28;;;;;;;27.00;16.73;;;;;;;-139.48;100.00;61774.03;5019918;28;20045;-68
2021/10/30 03:25:12;;;;;;;25.10;14.63;;;;;;;-139.48;100.00;61774.03;5019270;28;20468;-68
2021/10/30 03:27:56;;;;;;;26.38;16.25;;;;;;;-139.48;100.00;61774.03;5019263;28;20048;-68
2021/10/30 03:30:42;;;;;;;28.17;15.77;;;;;;;-139.48;100.00;61774.03;5019500;28;20048;-68
2021/10/30 03:33:26;;;;;;;27.92;16.30;;;;;;;-139.48;100.00;61774.03;5034434;28;20184;-69
2021/10/30 03:36:10;;;;;;;27.83;16.50;;;;;;;-139.48;100.00;61774.03;5004897;28;20469;-69
2021/10/30 03:38:54;;;;;;;25.80;16.08;;;;;;;-139.48;100.00;61774.03;5005497;28;20478;-68
2021/10/30 03:41:38;;;;;;;26.10;15.05;;;;;;;-139.48;100.00;61774.03;5034228;28;20132;-69
2021/10/30 03:44:22;;;;;;;24.33;15.82;;;;;;;-139.48;100.00;61774.03;5005326;28;20048;-68
2021/10/30 03:47:06;;;;;;;26.45;15.93;;;;;;;-139.48;100.00;61774.03;5018903;28;20044;-68
2021/10/30 03:49:50;;;;;;;29.05;17.52;;;;;;;-139.48;100.00;61774.03;5019453;28;20049;-68
2021/10/30 03:52:35;;;;;;;32.00;19.42;;;;;;;-139.48;100.00;61774.03;5018878;28;20052;-68
2021/10/30 03:55:19;;;;;;;34.97;20.65;;;;;;;-139.48;100.00;61774.03;5018939;28;20049;-67
2021/10/30 03:58:04;;;;;;;32.05;18.67;;;;;;;-139.48;100.00;61774.03;5018869;28;20052;-68
2021/10/30 04:00:48;;;;;;;27.90;17.15;;;;;;;-139.48;100.00;61774.03;5019028;28;20076;-68
2021/10/30 04:03:32;;;;;;;34.17;18.58;;;;;;;-139.48;100.00;61774.03;5018981;28;20124;-68
2021/10/30 04:06:16;;;;;;;25.20;15.98;;;;;;;-139.48;100.00;61774.03;5018682;28;20052;-69
2021/10/30 04:09:00;;;;;;;30.77;15.82;;;;;;;-139.48;100.00;61774.03;5018582;28;20175;-68
2021/10/30 04:11:45;;;;;;;23.90;14.85;;;;;;;-139.48;100.00;61774.03;5018554;28;20047;-67
2021/10/30 04:14:29;;;;;;;23.45;14.00;;;;;;;-139.48;100.00;61774.03;5018765;28;20049;-68
2021/10/30 04:17:13;;;;;;;24.42;16.33;;;;;;;-139.48;100.00;61774.03;5018798;28;20095;-68
2021/10/30 04:19:57;;;;;;;25.65;16.25;;;;;;;-139.48;100.00;61774.03;5018552;28;20071;-68
2021/10/30 04:22:41;;;;;;;26.48;17.08;;;;;;;-139.48;100.00;61774.03;5004834;28;20096;-69
2021/10/30 04:25:25;;;;;;;27.38;16.40;;;;;;;-139.48;100.00;61774.03;5004725;28;20414;-68
2021/10/30 04:28:09;;;;;;;29.67;16.10;;;;;;;-139.48;100.00;61774.03;5018372;28;20048;-69
2021/10/30 04:30:53;;;;;;;27.50;15.85;;;;;;;-139.48;100.00;61774.03;5033190;28;20140;-68
2021/10/30 04:33:42;;;;;;;27.60;15.93;;;;;;;-139.48;100.00;61774.03;5018834;28;20072;-68
2021/10/30 04:36:28;;;;;;;29.67;15.98;;;;;;;-139.48;100.00;61774.03;5018961;28;20075;-69
2021/10/30 04:39:12;;;;;;;23.38;15.15;;;;;;;-139.48;100.00;61774.03;5018740;28;20044;-68
2021/10/30 04:41:56;;;;;;;;;;;;;;;-139.48;100.00;61774.03;5018898;28;20405;-69
2021/10/30 04:44:40;;;;;;;23.65;15.93;;;;;;;-139.48;100.00;61774.03;5018438;28;19920;-69
2021/10/30 04:47:25;;;;;;;24.85;16.00;;;;;;;-139.48;100.00;61774.03;5004266;28;20110;-68
2021/10/30 04:50:09;;;;;;;34.95;19.77;;;;;;;-139.48;100.00;61774.03;5018056;28;20044;-68
2021/10/30 04:52:53;;;;;;;33.67;19.90;;;;;;;-139.48;100.00;61774.03;5018156;28;20413;-67
2021/10/30 04:55:37;;;;;;;34.20;19.08;;;;;;;-139.48;100.00;61774.03;5018296;28;20106;-69
2021/10/30 04:58:21;;;;;;;30.27;18.10;;;;;;;-139.48;100.00;61774.03;5004434;28;20510;-68
2021/10/30 05:01:05;;;;;;;32.25;18.40;;;;;;;-139.48;100.00;61774.03;5004240;28;20403;-68
2021/10/30 05:03:48;;;;;;;33.42;19.38;;;;;;;-139.48;100.00;61774.03;5017958;28;20048;-68
2021/10/30 05:06:32;;;;;;;34.47;19.65;;;;;;;-139.48;100.00;61774.03;5018161;28;20048;-68
2021/10/30 05:09:16;;;;;;;39.92;24.27;;;;;;;-139.48;100.00;61774.03;5018157;28;20056;-69
2021/10/30 05:12:00;;;;;;;39.35;22.35;;;;;;;-139.48;100.00;61774.03;5003945;28;20471;-69
2021/10/30 05:14:44;;;;;;;40.80;22.33;;;;;;;-139.48;100.00;61774.03;5018160;28;20406;-69
2021/10/30 05:17:28;;;;;;;32.58;20.30;;;;;;;-139.48;100.00;61774.03;5033064;28;20052;-69
2021/10/30 05:20:12;;;;;;;38.40;22.02;;;;;;;-139.48;100.00;61774.03;5017839;28;20514;-68
2021/10/30 05:22:56;;;;;;;32.92;20.70;;;;;;;-139.48;100.00;61774.03;5018027;28;20056;-68
2021/10/30 05:25:40;;;;;;;35.53;20.63;;;;;;;-139.48;100.00;61774.03;5017974;28;20056;-68
2021/10/30 05:28:24;;;;;;;;;;;;;;;-139.48;100.00;61774.03;5018557;28;20127;-68
2021/10/30 05:31:08;;;;;;;32.70;19.38;;;;;;;-139.48;100.00;61774.03;5032704;28;20354;-68
2021/10/30 05:33:52;;;;;;;34.47;21.13;;;;;;;-139.48;100.00;61774.03;5032668;28;20048;-68
2021/10/30 05:36:37;;;;;;;35.10;20.27;;;;;;;-139.48;100.00;61774.03;5017443;28;20056;-68
2021/10/30 05:39:23;;;;;;;29.33;18.92;;;;;;;-139.48;100.00;61774.03;5018338;28;20601;-68
2021/10/30 05:42:08;;;;;;;27.95;17.38;;;;;;;-139.48;100.00;61774.03;5004191;28;20044;-68
2021/10/30 05:44:52;;;;;;;25.58;16.42;;;;;;;-139.48;100.00;61774.03;5021186;28;20418;-69
2021/10/30 05:47:37;;;;;;;30.58;18.35;;;;;;;-139.48;100.00;61774.03;5021499;28;20079;-68
2021/10/30 05:50:21;;;;;;;27.70;17.45;;;;;;;-139.48;100.00;61774.03;5007728;28;20103;-69
2021/10/30 05:53:05;;;;;;;;;;;;;;;-139.48;100.00;61774.03;5036470;28;20477;-68
2021/10/30 05:55:49;;;;;;;26.13;16.58;;;;;;;-139.48;100.00;61774.03;5021112;28;20298;-69
2021/10/30 05:58:33;;;;;;;;;;;;;;;-139.48;100.00;61774.03;5021961;28;20394;-68
2021/10/30 06:01:17;;;;;;;29.57;17.70;;;;;;;-139.48;100.00;61774.03;5036228;28;20432;-67
2021/10/30 06:04:01;;;;;;;34.03;19.10;;;;;;;-139.48;100.00;61774.03;5035994;28;20533;-68
2021/10/30 06:06:45;;;;;;;32.30;19.50;;;;;;;-139.48;100.00;61774.03;5020748;28;20529;-68
2021/10/30 06:09:28;;;;;;;30.88;17.33;;;;;;;-139.48;100.00;61774.03;5020748;28;20072;-68
2021/10/30 06:12:12;;;;;;;28.95;17.60;;;;;;;-139.48;100.00;61774.03;5021206;28;20099;-69
2021/10/30 06:14:56;;;;;;;25.88;15.13;;;;;;;-139.48;100.00;61774.03;5021017;28;20551;-68
2021/10/30 06:17:40;;;;;;;26.88;16.50;;;;;;;-139.48;100.00;61774.03;5020987;28;20128;-68
2021/10/30 06:20:24;;;;;;;23.15;15.60;;;;;;;-139.48;100.00;61774.03;5006696;28;20044;-68
2021/10/30 06:23:08;;;;;;;24.98;15.57;;;;;;;-139.48;100.00;61774.03;5021114;28;20048;-68
2021/10/30 06:25:53;;;;;;;25.55;16.52;;;;;;;-139.48;100.00;61774.03;5020771;28;20536;-67
2021/10/30 06:28:37;;;;;;;27.15;16.90;;;;;;;-139.48;100.00;61774.03;5020639;28;20187;-68
2021/10/30 06:31:22;;;;;;;26.95;16.40;;;;;;;-139.48;100.00;61774.03;5020518;28;20460;-68
2021/10/30 06:34:05;;;;;;;38.00;16.55;;;;;;;-139.48;100.00;61774.03;5006525;28;20055;-68
2021/10/30 06:36:49;;;;;;;22.50;16.13;;;;;;;-139.48;100.00;61774.03;5035170;28;20056;-69
2021/10/30 06:39:33;;;;;;;23.92;15.55;;;;;;;-139.48;100.00;61774.03;5035542;28;20072;-68
2021/10/30 06:42:17;;;;;;;;;;;;;;;-139.48;100.00;61774.03;5035364;28;20048;-69
2021/10/30 06:45:03;;;;;;;23.30;14.47;;;;;;;-139.48;100.00;61774.03;5005807;28;19920;-68
2021/10/30 06:47:47;;;;;;;20.85;13.35;;;;;;;-139.48;100.00;61774.03;5005870;28;20053;-68
2021/10/30 06:50:32;;;;;;;25.15;13.98;;;;;;;-139.48;100.00;61774.03;5019923;28;20423;-69
2021/10/30 06:53:16;;;;;;;21.52;14.90;;;;;;;-139.48;100.00;61774.03;5019564;28;20140;-68
2021/10/30 06:56:00;;;;;;;21.70;14.52;;;;;;;-139.48;100.00;61774.03;5018465;28;20103;-67
2021/10/30 06:58:43;;;;;;;22.75;14.38;;;;;;;-139.48;100.00;61774.03;5019556;28;20064;-69
2021/10/30 07:01:27;;;;;;;21.25;14.05;;;;;;;-139.48;100.00;61774.03;5019359;28;20068;-68
2021/10/30 07:04:11;;;;;;;23.48;13.48;;;;;;;-139.48;100.00;61774.03;5019356;28;20156;-67
2021/10/30 07:06:55;;;;;;;21.15;13.85;;;;;;;-139.48;100.00;61774.03;5019205;28;20456;-68
2021/10/30 07:09:39;;;;;;;20.05;14.48;;;;;;;-139.48;100.00;61774.03;5034029;28;20505;-68
2021/10/30 07:12:24;;;;;;;18.63;13.27;;;;;;;-139.48;100.00;61774.03;5019281;28;20076;-68
2021/10/30 07:15:09;;;;;;;;;;;;;;;-139.48;100.00;61774.03;5019206;28;20056;-68
2021/10/30 07:17:52;;;;;;;22.80;14.38;;;;;;;-139.48;100.00;61774.03;5019067;28;19919;-68
2021/10/30 07:20:36;;;;;;;21.98;13.93;;;;;;;-139.48;100.00;61774.03;5018943;28;20088;-68
2021/10/30 07:23:20;;;;;;;20.75;14.00;;;;;;;-139.48;100.00;61774.03;5005008;28;20056;-68
2021/10/30 07:26:05;;;;;;;23.98;14.43;;;;;;;-139.48;100.00;61774.03;5004952;28;20106;-69
2021/10/30 07:28:49;;;;;;;20.88;13.88;;;;;;;-139.48;100.00;61774.03;5033917;28;20418;-68
2021/10/30 07:31:33;;;;;;;20.00;13.77;;;;;;;-139.48;100.00;61774.03;5018501;28;20493;-68
2021/10/30 07:34:17;;;;;;;21.25;14.75;;;;;;;-139.48;100.00;61774.03;5018772;28;20521;-68
2021/10/30 07:37:01;;;;;;;19.50;13.35;;;;;;;-139.48;100.00;61774.03;5004582;28;20560;-68
2021/10/30 07:39:45;;;;;;;20.38;14.32;;;;;;;-139.48;100.00;61774.03;5018467;28;20136;-68
2021/10/30 07:42:29;;;;;;;20.55;14.15;;;;;;;-139.48;100.00;61774.03;5018480;28;20111;-68
2021/10/30 07:45:13;;;;;;;22.40;14.43;;;;;;;-139.48;100.00;61774.03;5033521;28;20060;-69
2021/10/30 07:47:58;;;;;;;23.40;15.10;;;;;;;-139.48;100.00;61774.03;5033257;28;20056;-68
2021/10/30 07:50:42;;;;;;;25.65;14.63;;;;;;;-139.48;100.00;61774.03;5004721;28;20406;-68
2021/10/30 07:53:26;;;;;;;21.48;13.93;;;;;;;-139.48;100.00;61774.03;5033205;28;20056;-68
2021/10/30 07:56:10;;;;;;;21.17;12.85;;;;;;;-139.48;100.00;61774.03;5033217;28;20171;-69
2021/10/30 07:58:54;;;;;;;20.17;14.23;;;;;;;-139.48;100.00;61774.03;5018126;28;20235;-68
2021/10/30 08:01:38;;;;;;;20.77;14.23;;;;;;;-139.48;100.00;61774.03;5018410;28;20072;-68
2021/10/30 08:04:23;;;;;;;23.77;14.60;;;;;;;-139.48;100.00;61774.03;5018257;28;20048;-69
2021/10/30 08:07:07;;;;;;;23.40;14.02;;;;;;;-139.48;100.00;61774.03;5003712;28;20068;-68
2021/10/30 08:09:51;;;;;;;21.77;14.45;;;;;;;-139.48;100.00;61774.03;5033217;28;20122;-68
2021/10/30 08:12:34;;;;;;;21.10;14.63;;;;;;;-139.48;100.00;61774.03;5018349;28;20052;-67
2021/10/30 08:15:19;;;;;;;17.80;13.30;;;;;;;-139.48;100.00;61774.03;5003882;28;20052;-67
2021/10/30 08:18:03;;;;;;;17.52;13.30;;;;;;;-139.48;100.00;61774.03;5004031;28;20472;-68
2021/10/30 08:20:47;;;;;;;18.63;13.15;;;;;;;-139.48;100.00;61774.03;5018022;28;20056;-69
2021/10/30 08:23:31;;;;;;;19.77;13.50;;;;;;;-139.48;100.00;61774.03;5032818;28;20072;-68
2021/10/30 08:26:16;;;;;;;20.63;13.85;;;;;;;-139.48;100.00;61774.03;5017758;28;20095;-68
2021/10/30 08:29:00;;;;;;;21.17;14.32;;;;;;;-139.48;100.00;61774.03;5017944;28;20173;-68
2021/10/30 08:31:44;;;;;;;20.73;13.45;;;;;;;-139.48;100.00;61774.03;5017655;28;20047;-68
2021/10/30 08:34:29;;;;;;;20.42;14.25;;;;;;;-139.48;100.00;61774.03;5017823;28;20056;-68
2021/10/30 08:37:13;;;;;;;19.45;13.02;;;;;;;-139.48;100.00;61774.03;5017611;28;20106;-68
2021/10/30 08:39:57;;;;;;;19.50;13.10;;;;;;;-139.48;100.00;61774.03;5003591;28;20072;-68
2021/10/30 08:42:48;;;;;;;18.75;12.88;;;;;;;-139.48;100.00;61774.03;5017766;28;20052;-69
2021/10/30 08:45:32;;;;;;;18.08;12.85;;;;;;;-139.48;100.00;61774.03;5018005;28;20056;-68
2021/10/30 08:48:24;;;;;;;18.08;12.88;;;;;;;-139.48;100.00;61774.03;5017598;28;20056;-68
2021/10/30 08:51:08;;;;;;;18.23;12.93;;;;;;;-139.48;100.00;61774.03;5017652;28;20048;-67
2021/10/30 08:53:52;;;;;;;19.27;13.27;;;;;;;-139.48;100.00;61774.03;5017718;28;20080;-68
2021/10/30 08:56:38;;;;;;;21.30;13.00;;;;;;;-139.48;100.00;61774.03;5003664;28;20568;-68
2021/10/30 08:59:40;;;;;;;20.55;14.02;;;;;;;-139.48;100.00;61774.03;5018184;28;20091;-68
2021/10/30 09:02:34;;;;;;;18.85;12.93;;;;;;;-139.48;100.00;61774.03;5017717;28;20412;-69
2021/10/30 09:05:22;;;;;;;21.38;13.98;;;;;;;-139.48;100.00;61774.03;5017805;28;20398;-67
2021/10/30 09:08:08;;;;;;;19.08;12.90;;;;;;;-139.48;100.00;61774.03;5017947;28;20057;-69
2021/10/30 09:11:02;;;;;;;19.23;13.43;;;;;;;-139.48;100.00;61774.03;5017623;28;20148;-69
2021/10/30 09:13:55;;;;;;;21.08;14.18;;;;;;;-139.48;100.00;61774.03;5017318;28;20104;-68
2021/10/30 09:16:39;;;;;;;26.60;17.55;;;;;;;-139.48;100.00;61774.03;5017179;28;20576;-69
2021/10/30 09:19:30;;;;;;;24.33;14.30;;;;;;;-139.48;100.00;61774.03;5035633;28;20095;-68
2021/10/30 09:22:16;;;;;;;19.10;13.75;;;;;;;-139.48;100.00;61774.03;5021154;28;20044;-68
2021/10/30 09:25:02;;;;;;;20.42;13.55;;;;;;;-139.48;100.00;61774.03;5036166;28;20052;-68
2021/10/30 09:27:46;;;;;;;20.55;16.58;;;;;;;-139.48;100.00;61774.03;5036138;28;20057;-69
2021/10/30 09:30:33;;;;;;;24.23;14.85;;;;;;;-139.48;100.00;61774.03;5036067;28;20133;-69
2021/10/30 09:33:17;;;;;;;18.13;13.50;;;;;;;-139.48;100.00;61774.03;5006988;28;20418;-69
2021/10/30 09:36:12;;;;;;;18.58;13.05;;;;;;;-139.48;100.00;61774.03;5020811;28;20422;-68
2021/10/30 09:38:58;;;;;;;18.13;12.85;;;;;;;-139.48;100.00;61774.03;5021344;28;20548;-68
2021/10/30 09:41:45;;;;;;;23.33;14.18;;;;;;;-139.48;100.00;61774.03;5007186;28;20513;-69
2021/10/30 09:44:29;;;;;;;19.88;13.50;;;;;;;-139.48;100.00;61774.03;5006759;28;20080;-68
2021/10/30 09:47:21;;;;;;;20.30;12.68;;;;;;;-139.48;100.00;61774.03;5035632;28;20043;-68
2021/10/30 09:50:22;;;;;;;18.13;12.63;;;;;;;-139.48;100.00;61774.03;5020521;28;20056;-66
2021/10/30 09:53:27;;;;;;;20.60;13.55;;;;;;;-139.48;100.00;61774.03;5020966;28;20044;-67
2021/10/30 09:56:12;;;;;;;20.90;14.27;;;;;;;-139.48;100.00;61774.03;5020373;28;20053;-68
2021/10/30 09:58:56;;;;;;;18.63;13.43;;;;;;;-139.48;100.00;61774.03;5020406;28;20080;-68
2021/10/30 10:01:42;;;;;;;21.08;13.90;;;;;;;-139.48;100.00;61774.03;5020119;28;20056;-68
2021/10/30 10:04:27;;;;;;;32.53;24.33;;;;;;;-139.48;100.00;61774.03;5006815;28;20056;-69
2021/10/30 10:07:11;;;;;;;23.27;16.77;;;;;;;-139.48;100.00;61774.03;5006342;28;20095;-68
2021/10/30 10:09:56;;;;;;;19.50;14.00;;;;;;;-139.48;100.00;61774.03;5020128;28;20057;-68
2021/10/30 10:12:41;;;;;;;21.63;13.70;;;;;;;-139.48;100.00;61774.03;5035105;28;20056;-68
2021/10/30 10:15:25;;;;;;;16.50;12.50;;;;;;;-139.48;100.00;61774.03;5020165;28;20525;-68
2021/10/30 10:18:10;;;;;;;15.88;12.13;;;;;;;-139.48;100.00;61774.03;5020161;28;20124;-68
2021/10/30 10:20:54;;;;;;;18.30;11.77;;;;;;;-139.48;100.00;61774.03;5005978;28;20052;-68
2021/10/30 10:23:43;;;;;;;22.58;15.50;;;;;;;-139.48;100.00;61774.03;5019814;28;20044;-68
2021/10/30 10:26:32;;;;;;;16.75;10.90;;;;;;;-139.48;100.00;61774.03;5006154;28;20095;-69
2021/10/30 10:29:32;;;;;;;14.40;10.35;;;;;;;-139.48;100.00;61774.03;5034784;28;20468;-68
2021/10/30 10:32:16;;;;;;;16.73;11.60;;;;;;;-139.48;100.00;61774.03;5019582;28;20068;-68
2021/10/30 10:35:05;;;;;;;16.98;12.65;;;;;;;-139.48;100.00;61774.03;5034538;28;20047;-68
2021/10/30 10:37:52;;;;;;;19.10;12.60;;;;;;;-139.48;100.00;61774.03;5035030;28;20052;-68
2021/10/30 10:40:37;;;;;;;15.93;11.30;;;;;;;-139.48;100.00;61774.03;5019945;28;20448;-68
2021/10/30 10:43:43;;;;;;;17.17;12.50;;;;;;;-139.48;100.00;61774.03;5005795;28;20044;-68
2021/10/30 10:46:28;;;;;;;14.25;10.82;;;;;;;-139.48;100.00;61774.03;5034925;22;20119;-69
2021/10/30 10:49:47;;;;;;;16.80;11.57;;;;;;;-139.48;100.00;61774.03;5019913;28;20225;-69
2021/10/30 10:52:31;;;;;;;33.53;24.58;;;;;;;-139.48;100.00;61774.03;5021427;28;20520;-69
2021/10/30 10:55:15;;;;;;;16.95;12.52;;;;;;;-139.48;100.00;61774.03;5034517;28;20044;-69
2021/10/30 10:58:10;;;;;;;17.05;13.05;;;;;;;-139.48;100.00;61774.03;5034315;28;20053;-68
2021/10/30 11:01:14;;;;;;;15.70;12.20;;;;;;;-139.48;100.00;61774.03;5019634;28;20505;-69
2021/10/30 11:04:11;;;;;;;19.33;14.40;;;;;;;-139.48;100.00;61774.03;5020044;28;20450;-67
2021/10/30 11:07:11;;;;;;;27.20;20.02;;;;;;;-139.48;100.00;61774.03;5019209;28;20136;-68
2021/10/30 11:10:00;;;;;;;21.02;13.43;;;;;;;-139.48;100.00;61774.03;5019221;28;20048;-67
2021/10/30 11:13:02;;;;;;;21.45;14.85;;;;;;;-139.48;100.00;61774.03;5019249;28;20044;-69
2021/10/30 11:15:56;;;;;;;19.17;15.00;;;;;;;-139.48;100.00;61774.03;5033885;28;20132;-67
2021/10/30 11:21:33;;;;;;;25.88;19.30;;;;;;;-139.48;100.00;61774.03;5018999;28;20048;-67
2021/10/30 11:24:23;;;;;;;31.27;21.10;;;;;;;-139.48;100.00;61774.03;5018629;28;20060;-66
2021/10/30 11:27:07;;;;;;;24.92;19.20;;;;;;;-139.48;100.00;61774.03;5018965;28;20155;-68
2021/10/30 11:29:53;;;;;;;22.75;16.67;;;;;;;-139.48;100.00;61774.03;5018701;28;20052;-68
2021/10/30 11:32:37;;;;;;;40.08;29.05;;;;;;;-139.48;100.00;61774.03;5018958;28;20136;-68
2021/10/30 11:35:21;;;;;;;21.33;16.55;;;;;;;-139.48;100.00;61774.03;5033555;28;20099;-68
2021/10/30 11:38:09;;;;;;;18.35;13.73;;;;;;;-139.48;100.00;61774.03;5004926;28;20052;-67
2021/10/30 11:41:00;;;;;;;19.02;14.90;;;;;;;-139.48;100.00;61774.03;5018139;28;20545;-69
2021/10/30 11:43:47;;;;;;;20.85;13.23;;;;;;;-139.48;100.00;61774.03;5033700;28;20536;-69
2021/10/30 11:46:32;;;;;;;16.30;12.88;;;;;;;-139.48;100.00;61774.03;5018430;28;20056;-68
2021/10/30 11:49:23;;;;;;;21.20;13.48;;;;;;;-139.48;100.00;61774.03;5018513;28;20445;-68
2021/10/30 11:52:09;;;;;;;17.45;12.95;;;;;;;-139.48;100.00;61774.03;5033259;28;20418;-68
2021/10/30 11:55:00;;;;;;;19.02;13.88;;;;;;;-139.48;100.00;61774.03;5018603;28;20048;-67
2021/10/30 11:57:44;;;;;;;20.05;13.38;;;;;;;-139.48;100.00;61774.03;5018293;28;20230;-68
2021/10/30 12:00:28;;;;;;;20.17;13.30;;;;;;;-139.48;100.00;61774.03;5018329;28;20049;-68
2021/10/30 12:03:12;;;;;;;19.35;12.75;;;;;;;-139.48;100.00;61774.03;5018354;28;20090;-68
2021/10/30 12:05:58;;;;;;;21.13;13.57;;;;;;;-139.48;100.00;61774.03;5033247;28;20057;-66
2021/10/30 12:08:42;;;;;;;19.48;13.23;;;;;;;-139.48;100.00;61774.03;5018493;28;20048;-67
2021/10/30 12:11:27;;;;;;;20.42;13.18;;;;;;;-139.48;100.00;61774.03;5018002;28;20048;-69
2021/10/30 12:14:11;;;;;;;20.38;14.15;;;;;;;-139.48;100.00;61774.03;5033224;28;20048;-66
2021/10/30 12:16:56;;;;;;;;;;;;;;;-139.48;100.00;61774.03;5018345;28;20137;-66
2021/10/30 12:19:47;;;;;;;22.48;15.80;;;;;;;-139.48;100.00;61774.03;5018115;28;20311;-69
2021/10/30 12:22:37;;;;;;;23.08;17.20;;;;;;;-139.48;100.00;61774.03;5018054;28;20402;-68